CST,Max TemperatureF,Mean TemperatureF,Min TemperatureF,Max Dew PointF,MeanDew PointF,Min DewpointF,Max Humidity, Mean Humidity, Min Humidity, Max Sea Level PressureIn, Mean Sea Level PressureIn, Min Sea Level PressureIn, Max VisibilityMiles, Mean VisibilityMiles, Min VisibilityMiles, Max Wind SpeedMPH, Mean Wind SpeedMPH, Max Gust SpeedMPH,PrecipitationIn, CloudCover, Events, WindDirDegrees
2011-12-1,51,37,22,33,28,23,100,73,46,30.37,30.33,30.25,10,9,7,9,2,13,0.00,0,,127
2011-12-2,58,42,26,38,32,26,100,70,39,30.46,30.41,30.34,10,10,6,8,3,10,0.00,0,,91
2011-12-3,64,50,36,37,32,29,85,57,29,30.41,30.31,30.20,10,10,10,15,7,21,0.00,0,,154
2011-12-4,61,56,51,53,46,31,100,68,36,30.19,30.14,30.08,10,7,2,20,9,26,0.59,7,Rain,75
2011-12-5,52,46,39,52,46,38,100,95,89,30.11,30.06,29.99,10,3,1,23,9,29,2.69,8,Rain,12
2011-12-6,42,41,39,40,39,37,100,91,82,30.15,30.11,30.08,10,6,2,16,8,21,0.01,8,Rain,345
2011-12-7,42,36,29,37,32,27,100,81,62,30.30,30.11,30.02,10,8,2,22,10,29,0.05,6,Snow,334
2011-12-8,43,34,24,31,26,24,100,81,51,30.38,30.30,30.25,10,7,2,7,2,,0.00,0,,208
2011-12-9,49,36,23,32,27,23,100,75,49,30.45,30.31,30.24,10,6,0,16,5,20,0.00,1,Fog,338
2011-12-10,39,31,22,26,19,16,92,68,44,30.63,30.55,30.46,10,10,7,12,4,15,0.00,0,,20
2011-12-11,44,31,18,25,22,16,92,69,45,30.58,30.50,30.42,10,10,10,9,2,12,0.00,0,,77
2011-12-12,49,36,23,41,34,21,96,78,60,30.46,30.42,30.40,10,8,4,12,2,14,0.00,5,,148
2011-12-13,53,47,40,49,44,39,100,92,83,30.49,30.41,30.32,10,6,2,9,3,13,T,8,Rain,145
2011-12-14,67,56,45,53,48,45,100,78,56,30.32,30.21,30.03,10,5,1,25,11,33,0.00,3,,170
2011-12-15,66,54,41,61,54,34,90,77,63,30.29,30.06,29.98,10,10,5,23,13,29,0.11,7,Rain,245
2011-12-16,41,34,27,34,32,26,100,87,73,30.40,30.33,30.26,10,8,3,14,6,17,0.55,6,Rain,4
2011-12-17,43,33,23,31,27,23,100,77,53,30.43,30.37,30.31,10,8,4,10,3,14,0.00,0,,250
2011-12-18,54,40,25,36,30,26,100,73,46,30.39,30.32,30.22,10,7,1,12,4,15,0.00,0,,199
2011-12-19,54,45,35,35,34,30,85,66,46,30.22,30.16,30.12,10,10,10,16,6,23,0.00,5,,178
2011-12-20,63,51,39,59,49,33,100,85,70,30.12,29.96,29.78,10,9,5,20,6,26,0.10,8,Rain,153
2011-12-21,64,52,39,61,48,38,100,86,71,30.04,29.87,29.74,10,8,1,23,8,29,0.53,5,Rain,228
2011-12-22,46,43,40,45,42,39,100,95,89,30.19,30.07,29.96,10,7,2,13,5,16,0.56,7,Rain,1
2011-12-23,43,40,37,40,36,30,96,86,76,30.42,30.34,30.20,10,8,6,13,7,16,0.00,8,,319
2011-12-24,48,40,32,33,30,28,85,67,49,30.49,30.44,30.39,10,10,7,9,2,13,0.00,2,,254
2011-12-25,56,44,31,34,28,22,96,62,27,30.40,30.36,30.29,10,10,6,16,4,21,0.00,0,,264
2011-12-26,47,38,28,38,31,26,92,71,49,30.37,30.16,29.86,10,9,4,17,6,21,0.27,3,Rain,97
2011-12-27,44,41,37,43,38,30,100,83,65,30.08,29.78,29.65,10,6,2,24,10,33,0.50,8,Rain,265
2011-12-28,46,37,28,33,30,27,100,77,53,30.17,30.11,30.03,10,10,10,12,4,14,0.00,0,,237
2011-12-29,50,40,30,41,32,26,85,64,42,30.03,29.95,29.88,10,10,10,13,5,18,0.00,0,,190
2011-12-30,59,53,47,48,42,37,80,64,47,29.92,29.83,29.74,10,10,10,29,12,37,0.00,2,,215
2011-12-31,59,48,36,36,35,33,82,63,43,30.13,30.02,29.91,10,10,10,14,6,18,0.00,0,,182